sensor_id;sensor_type;location;lat;lon;timestamp;P1;durP1;ratioP1;P2;durP2;ratioP2
14778;SDS011;7481;53.750;10.570;2023-03-08T00:00:00;3.30;;;1.53;;
14778;SDS011;7481;53.750;10.570;2023-03-08T00:02:48;2.17;;;1.60;;
14778;SDS011;7481;53.750;10.570;2023-03-08T00:05:36;3.17;;;1.63;;
14778;SDS011;7481;53.750;10.570;2023-03-08T00:08:23;6.20;;;1.63;;
14778;SDS011;7481;53.750;10.570;2023-03-08T00:11:11;2.67;;;1.53;;
14778;SDS011;7481;53.750;10.570;2023-03-08T00:13:58;5.27;;;1.50;;
14778;SDS011;7481;53.750;10.570;2023-03-08T00:16:47;7.03;;;3.03;;
14778;SDS011;7481;53.750;10.570;2023-03-08T00:19:34;2.37;;;1.47;;
14778;SDS011;7481;53.750;10.570;2023-03-08T00:22:22;4.40;;;1.90;;
14778;SDS011;7481;53.750;10.570;2023-03-08T00:25:09;2.53;;;1.43;;
14778;SDS011;7481;53.750;10.570;2023-03-08T00:27:57;4.43;;;2.03;;
14778;SDS011;7481;53.750;10.570;2023-03-08T00:30:45;7.47;;;1.50;;
14778;SDS011;7481;53.750;10.570;2023-03-08T00:33:32;3.43;;;1.80;;
14778;SDS011;7481;53.750;10.570;2023-03-08T00:36:20;3.63;;;1.80;;
14778;SDS011;7481;53.750;10.570;2023-03-08T00:39:08;6.87;;;1.70;;
14778;SDS011;7481;53.750;10.570;2023-03-08T00:41:55;1.80;;;1.43;;
14778;SDS011;7481;53.750;10.570;2023-03-08T00:44:42;4.73;;;2.63;;
14778;SDS011;7481;53.750;10.570;2023-03-08T00:47:30;1.97;;;1.70;;
14778;SDS011;7481;53.750;10.570;2023-03-08T00:50:17;2.77;;;1.80;;
14778;SDS011;7481;53.750;10.570;2023-03-08T00:53:05;3.60;;;1.70;;
14778;SDS011;7481;53.750;10.570;2023-03-08T00:55:57;3.37;;;1.43;;
14778;SDS011;7481;53.750;10.570;2023-03-08T00:58:44;3.83;;;1.87;;
14778;SDS011;7481;53.750;10.570;2023-03-08T01:01:32;4.33;;;1.83;;
14778;SDS011;7481;53.750;10.570;2023-03-08T01:04:19;2.63;;;1.90;;
14778;SDS011;7481;53.750;10.570;2023-03-08T01:07:07;3.40;;;2.10;;
14778;SDS011;7481;53.750;10.570;2023-03-08T01:09:54;3.63;;;2.60;;
14778;SDS011;7481;53.750;10.570;2023-03-08T01:12:41;4.07;;;3.30;;
14778;SDS011;7481;53.750;10.570;2023-03-08T01:15:29;8.53;;;3.30;;
14778;SDS011;7481;53.750;10.570;2023-03-08T01:18:17;7.30;;;3.37;;
14778;SDS011;7481;53.750;10.570;2023-03-08T01:21:04;6.90;;;3.10;;
14778;SDS011;7481;53.750;10.570;2023-03-08T01:23:51;3.97;;;2.30;;
14778;SDS011;7481;53.750;10.570;2023-03-08T01:26:39;5.10;;;2.80;;
14778;SDS011;7481;53.750;10.570;2023-03-08T01:29:26;6.90;;;2.90;;
14778;SDS011;7481;53.750;10.570;2023-03-08T01:32:14;4.97;;;2.90;;
14778;SDS011;7481;53.750;10.570;2023-03-08T01:35:01;4.33;;;2.53;;
14778;SDS011;7481;53.750;10.570;2023-03-08T01:37:50;4.40;;;2.30;;
14778;SDS011;7481;53.750;10.570;2023-03-08T01:40:41;3.93;;;2.33;;
14778;SDS011;7481;53.750;10.570;2023-03-08T01:43:33;2.60;;;2.00;;
14778;SDS011;7481;53.750;10.570;2023-03-08T01:46:24;3.83;;;2.57;;
14778;SDS011;7481;53.750;10.570;2023-03-08T01:49:23;3.83;;;1.97;;
14778;SDS011;7481;53.750;10.570;2023-03-08T01:52:13;3.17;;;2.33;;
14778;SDS011;7481;53.750;10.570;2023-03-08T01:55:03;2.70;;;2.30;;
14778;SDS011;7481;53.750;10.570;2023-03-08T01:57:51;3.00;;;2.37;;
14778;SDS011;7481;53.750;10.570;2023-03-08T02:00:40;5.83;;;2.50;;
14778;SDS011;7481;53.750;10.570;2023-03-08T02:03:27;4.70;;;2.37;;
14778;SDS011;7481;53.750;10.570;2023-03-08T02:06:15;2.90;;;2.20;;
14778;SDS011;7481;53.750;10.570;2023-03-08T02:09:04;5.40;;;2.70;;
14778;SDS011;7481;53.750;10.570;2023-03-08T02:11:51;3.83;;;2.50;;
14778;SDS011;7481;53.750;10.570;2023-03-08T02:14:40;3.13;;;2.70;;
14778;SDS011;7481;53.750;10.570;2023-03-08T02:17:28;5.30;;;2.60;;
14778;SDS011;7481;53.750;10.570;2023-03-08T02:20:17;2.70;;;2.40;;
14778;SDS011;7481;53.750;10.570;2023-03-08T02:23:26;4.77;;;2.57;;
14778;SDS011;7481;53.750;10.570;2023-03-08T02:26:13;4.47;;;2.60;;
14778;SDS011;7481;53.750;10.570;2023-03-08T02:29:00;3.00;;;2.40;;
14778;SDS011;7481;53.750;10.570;2023-03-08T02:31:48;4.87;;;2.40;;
14778;SDS011;7481;53.750;10.570;2023-03-08T02:34:35;3.20;;;2.40;;
14778;SDS011;7481;53.750;10.570;2023-03-08T02:37:23;4.13;;;2.70;;
14778;SDS011;7481;53.750;10.570;2023-03-08T02:40:10;3.80;;;2.90;;
14778;SDS011;7481;53.750;10.570;2023-03-08T02:42:58;6.43;;;3.57;;
14778;SDS011;7481;53.750;10.570;2023-03-08T02:45:45;8.10;;;4.20;;
14778;SDS011;7481;53.750;10.570;2023-03-08T02:48:32;5.40;;;3.87;;
14778;SDS011;7481;53.750;10.570;2023-03-08T02:51:20;5.87;;;3.80;;
14778;SDS011;7481;53.750;10.570;2023-03-08T02:54:07;6.33;;;4.47;;
14778;SDS011;7481;53.750;10.570;2023-03-08T02:56:55;5.30;;;3.90;;
14778;SDS011;7481;53.750;10.570;2023-03-08T02:59:42;6.27;;;4.40;;
14778;SDS011;7481;53.750;10.570;2023-03-08T03:02:31;6.47;;;4.47;;
14778;SDS011;7481;53.750;10.570;2023-03-08T03:05:18;6.93;;;4.60;;
14778;SDS011;7481;53.750;10.570;2023-03-08T03:08:06;8.57;;;4.37;;
14778;SDS011;7481;53.750;10.570;2023-03-08T03:10:53;9.10;;;4.60;;
14778;SDS011;7481;53.750;10.570;2023-03-08T03:13:41;6.63;;;4.10;;
14778;SDS011;7481;53.750;10.570;2023-03-08T03:16:28;10.13;;;4.80;;
14778;SDS011;7481;53.750;10.570;2023-03-08T03:19:15;8.30;;;3.80;;
14778;SDS011;7481;53.750;10.570;2023-03-08T03:22:03;5.60;;;3.77;;
14778;SDS011;7481;53.750;10.570;2023-03-08T03:24:50;6.33;;;4.10;;
14778;SDS011;7481;53.750;10.570;2023-03-08T03:27:38;6.97;;;4.07;;
14778;SDS011;7481;53.750;10.570;2023-03-08T03:30:25;7.07;;;4.27;;
14778;SDS011;7481;53.750;10.570;2023-03-08T03:33:12;7.63;;;4.23;;
14778;SDS011;7481;53.750;10.570;2023-03-08T03:36:00;8.30;;;4.00;;
14778;SDS011;7481;53.750;10.570;2023-03-08T03:38:48;6.63;;;4.13;;
14778;SDS011;7481;53.750;10.570;2023-03-08T03:41:35;7.93;;;4.60;;
14778;SDS011;7481;53.750;10.570;2023-03-08T03:44:23;8.33;;;4.50;;
14778;SDS011;7481;53.750;10.570;2023-03-08T03:47:10;9.27;;;4.90;;
14778;SDS011;7481;53.750;10.570;2023-03-08T03:49:57;7.40;;;5.27;;
14778;SDS011;7481;53.750;10.570;2023-03-08T03:52:45;7.83;;;5.40;;
14778;SDS011;7481;53.750;10.570;2023-03-08T03:55:32;6.90;;;4.90;;
14778;SDS011;7481;53.750;10.570;2023-03-08T03:58:20;11.03;;;5.37;;
14778;SDS011;7481;53.750;10.570;2023-03-08T04:01:08;8.63;;;5.30;;
14778;SDS011;7481;53.750;10.570;2023-03-08T04:03:55;9.73;;;5.40;;
14778;SDS011;7481;53.750;10.570;2023-03-08T04:06:43;7.97;;;4.93;;
14778;SDS011;7481;53.750;10.570;2023-03-08T04:09:30;8.17;;;4.77;;
14778;SDS011;7481;53.750;10.570;2023-03-08T04:12:18;10.93;;;5.23;;
14778;SDS011;7481;53.750;10.570;2023-03-08T04:15:05;7.80;;;4.97;;
14778;SDS011;7481;53.750;10.570;2023-03-08T04:17:53;8.30;;;5.17;;
14778;SDS011;7481;53.750;10.570;2023-03-08T04:20:40;9.10;;;5.37;;
14778;SDS011;7481;53.750;10.570;2023-03-08T04:23:28;8.23;;;5.30;;
14778;SDS011;7481;53.750;10.570;2023-03-08T04:26:15;7.67;;;5.43;;
14778;SDS011;7481;53.750;10.570;2023-03-08T04:29:03;10.67;;;5.53;;
14778;SDS011;7481;53.750;10.570;2023-03-08T04:31:51;9.67;;;5.30;;
14778;SDS011;7481;53.750;10.570;2023-03-08T04:34:41;7.07;;;5.47;;
14778;SDS011;7481;53.750;10.570;2023-03-08T04:37:28;8.47;;;5.20;;
14778;SDS011;7481;53.750;10.570;2023-03-08T04:40:16;7.40;;;5.17;;
14778;SDS011;7481;53.750;10.570;2023-03-08T04:43:03;7.80;;;5.33;;
14778;SDS011;7481;53.750;10.570;2023-03-08T04:45:50;9.37;;;5.33;;
14778;SDS011;7481;53.750;10.570;2023-03-08T04:48:38;8.37;;;5.97;;
14778;SDS011;7481;53.750;10.570;2023-03-08T04:51:25;9.23;;;6.13;;
14778;SDS011;7481;53.750;10.570;2023-03-08T04:54:13;10.13;;;6.47;;
14778;SDS011;7481;53.750;10.570;2023-03-08T04:57:00;8.93;;;5.90;;
14778;SDS011;7481;53.750;10.570;2023-03-08T04:59:47;8.93;;;5.60;;
14778;SDS011;7481;53.750;10.570;2023-03-08T05:02:35;7.10;;;5.83;;
14778;SDS011;7481;53.750;10.570;2023-03-08T05:05:22;8.37;;;5.27;;
14778;SDS011;7481;53.750;10.570;2023-03-08T05:08:10;11.50;;;6.33;;
14778;SDS011;7481;53.750;10.570;2023-03-08T05:10:58;10.13;;;5.70;;
14778;SDS011;7481;53.750;10.570;2023-03-08T05:13:46;10.65;;;6.60;;
14778;SDS011;7481;53.750;10.570;2023-03-08T05:16:34;10.07;;;7.10;;
14778;SDS011;7481;53.750;10.570;2023-03-08T05:19:22;10.37;;;6.73;;
14778;SDS011;7481;53.750;10.570;2023-03-08T05:22:09;9.57;;;6.57;;
14778;SDS011;7481;53.750;10.570;2023-03-08T05:24:57;9.17;;;6.70;;
14778;SDS011;7481;53.750;10.570;2023-03-08T05:27:44;10.70;;;6.30;;
14778;SDS011;7481;53.750;10.570;2023-03-08T05:30:31;9.73;;;6.33;;
14778;SDS011;7481;53.750;10.570;2023-03-08T05:33:19;11.23;;;7.67;;
14778;SDS011;7481;53.750;10.570;2023-03-08T05:36:06;12.53;;;8.37;;
14778;SDS011;7481;53.750;10.570;2023-03-08T05:38:54;9.97;;;7.43;;
14778;SDS011;7481;53.750;10.570;2023-03-08T05:41:42;10.53;;;7.10;;
14778;SDS011;7481;53.750;10.570;2023-03-08T05:44:29;11.77;;;8.30;;
14778;SDS011;7481;53.750;10.570;2023-03-08T05:47:16;9.83;;;7.30;;
14778;SDS011;7481;53.750;10.570;2023-03-08T05:50:04;9.80;;;7.07;;
14778;SDS011;7481;53.750;10.570;2023-03-08T05:52:51;14.03;;;8.20;;
14778;SDS011;7481;53.750;10.570;2023-03-08T05:55:39;12.57;;;7.60;;
14778;SDS011;7481;53.750;10.570;2023-03-08T05:58:26;11.13;;;8.03;;
14778;SDS011;7481;53.750;10.570;2023-03-08T06:04:02;12.80;;;8.95;;
14778;SDS011;7481;53.750;10.570;2023-03-08T06:06:49;11.53;;;7.97;;
14778;SDS011;7481;53.750;10.570;2023-03-08T06:09:37;12.87;;;7.50;;
14778;SDS011;7481;53.750;10.570;2023-03-08T06:12:24;10.73;;;7.13;;
14778;SDS011;7481;53.750;10.570;2023-03-08T06:15:11;11.77;;;7.33;;
14778;SDS011;7481;53.750;10.570;2023-03-08T06:17:59;9.57;;;7.17;;
14778;SDS011;7481;53.750;10.570;2023-03-08T06:23:44;9.13;;;6.47;;
14778;SDS011;7481;53.750;10.570;2023-03-08T06:26:31;11.57;;;7.20;;
14778;SDS011;7481;53.750;10.570;2023-03-08T06:29:19;10.10;;;6.70;;
14778;SDS011;7481;53.750;10.570;2023-03-08T06:32:06;8.30;;;6.27;;
14778;SDS011;7481;53.750;10.570;2023-03-08T06:34:54;9.87;;;6.03;;
14778;SDS011;7481;53.750;10.570;2023-03-08T06:37:41;10.40;;;6.23;;
14778;SDS011;7481;53.750;10.570;2023-03-08T06:40:28;8.00;;;5.87;;
14778;SDS011;7481;53.750;10.570;2023-03-08T06:43:16;9.27;;;5.90;;
14778;SDS011;7481;53.750;10.570;2023-03-08T06:46:07;8.83;;;5.33;;
14778;SDS011;7481;53.750;10.570;2023-03-08T06:48:55;7.27;;;5.33;;
14778;SDS011;7481;53.750;10.570;2023-03-08T06:51:42;6.33;;;5.23;;
14778;SDS011;7481;53.750;10.570;2023-03-08T06:54:30;9.57;;;6.20;;
14778;SDS011;7481;53.750;10.570;2023-03-08T06:57:17;8.60;;;5.70;;
14778;SDS011;7481;53.750;10.570;2023-03-08T07:00:05;8.40;;;5.20;;
14778;SDS011;7481;53.750;10.570;2023-03-08T07:02:54;7.37;;;5.80;;
14778;SDS011;7481;53.750;10.570;2023-03-08T07:05:42;5.73;;;5.00;;
14778;SDS011;7481;53.750;10.570;2023-03-08T07:08:29;8.47;;;5.70;;
14778;SDS011;7481;53.750;10.570;2023-03-08T07:11:17;8.10;;;5.40;;
14778;SDS011;7481;53.750;10.570;2023-03-08T07:14:04;10.30;;;5.60;;
14778;SDS011;7481;53.750;10.570;2023-03-08T07:16:51;8.07;;;5.40;;
14778;SDS011;7481;53.750;10.570;2023-03-08T07:19:39;8.13;;;5.07;;
14778;SDS011;7481;53.750;10.570;2023-03-08T07:22:28;6.60;;;4.80;;
14778;SDS011;7481;53.750;10.570;2023-03-08T07:25:16;7.13;;;4.80;;
14778;SDS011;7481;53.750;10.570;2023-03-08T07:28:04;7.90;;;5.00;;
14778;SDS011;7481;53.750;10.570;2023-03-08T07:30:52;6.63;;;4.43;;
14778;SDS011;7481;53.750;10.570;2023-03-08T07:33:40;7.57;;;5.10;;
14778;SDS011;7481;53.750;10.570;2023-03-08T07:36:28;6.63;;;4.83;;
14778;SDS011;7481;53.750;10.570;2023-03-08T07:39:15;5.80;;;4.77;;
14778;SDS011;7481;53.750;10.570;2023-03-08T07:42:03;5.63;;;4.50;;
14778;SDS011;7481;53.750;10.570;2023-03-08T07:44:50;7.67;;;4.50;;
14778;SDS011;7481;53.750;10.570;2023-03-08T07:47:38;6.93;;;5.03;;
14778;SDS011;7481;53.750;10.570;2023-03-08T07:50:26;5.63;;;3.83;;
14778;SDS011;7481;53.750;10.570;2023-03-08T07:53:13;7.27;;;4.70;;
14778;SDS011;7481;53.750;10.570;2023-03-08T07:56:01;5.70;;;4.80;;
14778;SDS011;7481;53.750;10.570;2023-03-08T07:58:49;6.67;;;4.37;;
14778;SDS011;7481;53.750;10.570;2023-03-08T08:01:36;14.10;;;8.10;;
14778;SDS011;7481;53.750;10.570;2023-03-08T08:04:24;17.37;;;10.43;;
14778;SDS011;7481;53.750;10.570;2023-03-08T08:07:12;21.13;;;10.60;;
14778;SDS011;7481;53.750;10.570;2023-03-08T08:10:00;19.10;;;11.93;;
14778;SDS011;7481;53.750;10.570;2023-03-08T08:12:47;18.33;;;11.67;;
14778;SDS011;7481;53.750;10.570;2023-03-08T08:15:34;18.93;;;11.57;;
14778;SDS011;7481;53.750;10.570;2023-03-08T08:18:22;15.13;;;8.93;;
14778;SDS011;7481;53.750;10.570;2023-03-08T08:21:10;13.90;;;8.53;;
14778;SDS011;7481;53.750;10.570;2023-03-08T08:23:58;11.77;;;7.60;;
14778;SDS011;7481;53.750;10.570;2023-03-08T08:26:47;12.03;;;7.80;;
14778;SDS011;7481;53.750;10.570;2023-03-08T08:29:35;15.53;;;8.40;;
14778;SDS011;7481;53.750;10.570;2023-03-08T08:32:23;10.57;;;7.27;;
14778;SDS011;7481;53.750;10.570;2023-03-08T08:35:10;13.47;;;8.50;;
14778;SDS011;7481;53.750;10.570;2023-03-08T08:37:58;12.33;;;7.23;;
14778;SDS011;7481;53.750;10.570;2023-03-08T08:40:45;11.40;;;7.07;;
14778;SDS011;7481;53.750;10.570;2023-03-08T08:43:33;9.77;;;6.33;;
14778;SDS011;7481;53.750;10.570;2023-03-08T08:46:21;8.53;;;6.03;;
14778;SDS011;7481;53.750;10.570;2023-03-08T08:49:09;12.57;;;7.73;;
14778;SDS011;7481;53.750;10.570;2023-03-08T08:51:56;10.77;;;7.43;;
14778;SDS011;7481;53.750;10.570;2023-03-08T08:54:44;17.50;;;9.67;;
14778;SDS011;7481;53.750;10.570;2023-03-08T08:57:31;13.63;;;8.60;;
14778;SDS011;7481;53.750;10.570;2023-03-08T09:00:20;14.33;;;9.27;;
14778;SDS011;7481;53.750;10.570;2023-03-08T09:03:07;15.37;;;9.23;;
14778;SDS011;7481;53.750;10.570;2023-03-08T09:05:56;13.80;;;8.73;;
14778;SDS011;7481;53.750;10.570;2023-03-08T09:08:44;13.87;;;8.40;;
14778;SDS011;7481;53.750;10.570;2023-03-08T09:11:34;9.47;;;7.43;;
14778;SDS011;7481;53.750;10.570;2023-03-08T09:14:39;12.90;;;7.20;;
14778;SDS011;7481;53.750;10.570;2023-03-08T09:17:26;11.00;;;7.20;;
14778;SDS011;7481;53.750;10.570;2023-03-08T09:20:14;12.63;;;7.07;;
14778;SDS011;7481;53.750;10.570;2023-03-08T09:23:02;10.17;;;6.83;;
14778;SDS011;7481;53.750;10.570;2023-03-08T09:25:56;11.13;;;6.90;;
14778;SDS011;7481;53.750;10.570;2023-03-08T09:28:46;16.50;;;6.67;;
14778;SDS011;7481;53.750;10.570;2023-03-08T09:31:34;10.17;;;6.37;;
14778;SDS011;7481;53.750;10.570;2023-03-08T09:34:22;10.00;;;6.00;;
14778;SDS011;7481;53.750;10.570;2023-03-08T09:37:10;13.60;;;6.77;;
14778;SDS011;7481;53.750;10.570;2023-03-08T09:39:57;10.07;;;6.97;;
14778;SDS011;7481;53.750;10.570;2023-03-08T09:42:45;12.57;;;8.37;;
14778;SDS011;7481;53.750;10.570;2023-03-08T09:45:32;15.77;;;9.73;;
14778;SDS011;7481;53.750;10.570;2023-03-08T09:48:25;16.77;;;9.93;;
14778;SDS011;7481;53.750;10.570;2023-03-08T09:51:15;16.03;;;9.93;;
14778;SDS011;7481;53.750;10.570;2023-03-08T09:54:05;19.13;;;11.10;;
14778;SDS011;7481;53.750;10.570;2023-03-08T09:56:53;19.33;;;11.33;;
14778;SDS011;7481;53.750;10.570;2023-03-08T09:59:48;19.27;;;11.50;;
14778;SDS011;7481;53.750;10.570;2023-03-08T10:02:45;25.07;;;13.50;;
14778;SDS011;7481;53.750;10.570;2023-03-08T10:05:36;17.37;;;11.20;;
14778;SDS011;7481;53.750;10.570;2023-03-08T10:08:34;18.53;;;11.97;;
14778;SDS011;7481;53.750;10.570;2023-03-08T10:11:32;18.30;;;11.33;;
14778;SDS011;7481;53.750;10.570;2023-03-08T10:14:26;17.03;;;11.00;;
14778;SDS011;7481;53.750;10.570;2023-03-08T10:17:19;20.33;;;11.93;;
14778;SDS011;7481;53.750;10.570;2023-03-08T10:20:13;22.87;;;13.23;;
14778;SDS011;7481;53.750;10.570;2023-03-08T10:23:14;21.57;;;13.07;;
14778;SDS011;7481;53.750;10.570;2023-03-08T10:26:04;24.17;;;13.00;;
14778;SDS011;7481;53.750;10.570;2023-03-08T10:28:52;21.93;;;12.37;;
14778;SDS011;7481;53.750;10.570;2023-03-08T10:31:41;20.20;;;12.30;;
14778;SDS011;7481;53.750;10.570;2023-03-08T10:34:29;23.77;;;13.23;;
14778;SDS011;7481;53.750;10.570;2023-03-08T10:37:20;21.33;;;12.53;;
14778;SDS011;7481;53.750;10.570;2023-03-08T10:40:17;17.13;;;11.30;;
14778;SDS011;7481;53.750;10.570;2023-03-08T10:43:08;19.33;;;11.90;;
14778;SDS011;7481;53.750;10.570;2023-03-08T10:46:04;18.60;;;11.07;;
14778;SDS011;7481;53.750;10.570;2023-03-08T10:48:52;18.13;;;11.40;;
14778;SDS011;7481;53.750;10.570;2023-03-08T10:51:40;20.00;;;12.33;;
14778;SDS011;7481;53.750;10.570;2023-03-08T10:54:37;17.33;;;10.97;;
14778;SDS011;7481;53.750;10.570;2023-03-08T10:57:24;19.37;;;11.70;;
14778;SDS011;7481;53.750;10.570;2023-03-08T11:06:01;17.43;;;10.47;;
14778;SDS011;7481;53.750;10.570;2023-03-08T11:08:53;19.63;;;10.87;;
14778;SDS011;7481;53.750;10.570;2023-03-08T11:11:40;17.87;;;10.77;;
14778;SDS011;7481;53.750;10.570;2023-03-08T11:14:28;18.93;;;10.70;;
14778;SDS011;7481;53.750;10.570;2023-03-08T11:17:30;19.00;;;10.80;;
14778;SDS011;7481;53.750;10.570;2023-03-08T11:26:09;16.77;;;10.30;;
14778;SDS011;7481;53.750;10.570;2023-03-08T11:34:56;14.77;;;9.30;;
14778;SDS011;7481;53.750;10.570;2023-03-08T11:37:48;16.50;;;10.40;;
14778;SDS011;7481;53.750;10.570;2023-03-08T11:40:41;16.10;;;9.00;;
14778;SDS011;7481;53.750;10.570;2023-03-08T11:58:39;11.57;;;7.60;;
14778;SDS011;7481;53.750;10.570;2023-03-08T12:01:29;17.40;;;10.10;;
14778;SDS011;7481;53.750;10.570;2023-03-08T12:04:21;15.20;;;9.70;;
14778;SDS011;7481;53.750;10.570;2023-03-08T12:07:14;14.90;;;8.57;;
14778;SDS011;7481;53.750;10.570;2023-03-08T12:10:20;13.23;;;8.47;;
14778;SDS011;7481;53.750;10.570;2023-03-08T12:16:18;13.83;;;8.13;;
14778;SDS011;7481;53.750;10.570;2023-03-08T12:19:15;12.73;;;8.57;;
14778;SDS011;7481;53.750;10.570;2023-03-08T12:25:20;13.13;;;7.80;;
14778;SDS011;7481;53.750;10.570;2023-03-08T12:28:05;13.70;;;8.50;;
14778;SDS011;7481;53.750;10.570;2023-03-08T12:37:23;13.83;;;8.13;;
14778;SDS011;7481;53.750;10.570;2023-03-08T12:40:34;14.37;;;8.60;;
14778;SDS011;7481;53.750;10.570;2023-03-08T12:46:09;12.07;;;7.50;;
14778;SDS011;7481;53.750;10.570;2023-03-08T12:48:56;9.17;;;6.60;;
14778;SDS011;7481;53.750;10.570;2023-03-08T12:51:54;7.40;;;5.53;;
14778;SDS011;7481;53.750;10.570;2023-03-08T12:54:41;9.30;;;6.10;;
14778;SDS011;7481;53.750;10.570;2023-03-08T12:57:33;11.20;;;6.60;;
14778;SDS011;7481;53.750;10.570;2023-03-08T13:05:58;8.50;;;6.07;;
14778;SDS011;7481;53.750;10.570;2023-03-08T13:08:48;9.57;;;5.50;;
14778;SDS011;7481;53.750;10.570;2023-03-08T13:11:37;7.73;;;5.97;;
14778;SDS011;7481;53.750;10.570;2023-03-08T13:14:39;7.47;;;5.17;;
14778;SDS011;7481;53.750;10.570;2023-03-08T13:20:19;8.37;;;5.37;;
14778;SDS011;7481;53.750;10.570;2023-03-08T13:26:13;6.53;;;4.93;;
14778;SDS011;7481;53.750;10.570;2023-03-08T13:29:08;8.40;;;5.40;;
14778;SDS011;7481;53.750;10.570;2023-03-08T13:31:57;8.07;;;4.97;;
14778;SDS011;7481;53.750;10.570;2023-03-08T13:34:50;10.30;;;5.27;;
14778;SDS011;7481;53.750;10.570;2023-03-08T13:37:50;6.80;;;4.27;;
14778;SDS011;7481;53.750;10.570;2023-03-08T13:40:38;5.80;;;4.17;;
14778;SDS011;7481;53.750;10.570;2023-03-08T13:43:36;8.63;;;3.90;;
14778;SDS011;7481;53.750;10.570;2023-03-08T13:46:23;4.87;;;3.77;;
14778;SDS011;7481;53.750;10.570;2023-03-08T13:49:28;6.47;;;3.83;;
14778;SDS011;7481;53.750;10.570;2023-03-08T13:52:20;4.50;;;3.33;;
14778;SDS011;7481;53.750;10.570;2023-03-08T13:55:12;6.00;;;3.83;;
14778;SDS011;7481;53.750;10.570;2023-03-08T13:58:02;6.07;;;3.70;;
14778;SDS011;7481;53.750;10.570;2023-03-08T14:01:24;6.17;;;3.43;;
14778;SDS011;7481;53.750;10.570;2023-03-08T14:04:09;4.47;;;3.57;;
14778;SDS011;7481;53.750;10.570;2023-03-08T14:06:58;5.80;;;4.17;;
14778;SDS011;7481;53.750;10.570;2023-03-08T14:09:45;6.17;;;4.30;;
14778;SDS011;7481;53.750;10.570;2023-03-08T14:12:33;6.17;;;3.97;;
14778;SDS011;7481;53.750;10.570;2023-03-08T14:15:20;5.00;;;3.70;;
14778;SDS011;7481;53.750;10.570;2023-03-08T14:18:15;5.50;;;3.80;;
14778;SDS011;7481;53.750;10.570;2023-03-08T14:21:06;6.00;;;3.97;;
14778;SDS011;7481;53.750;10.570;2023-03-08T14:23:59;5.87;;;3.90;;
14778;SDS011;7481;53.750;10.570;2023-03-08T14:29:42;4.93;;;3.60;;
14778;SDS011;7481;53.750;10.570;2023-03-08T14:32:30;6.00;;;4.17;;
14778;SDS011;7481;53.750;10.570;2023-03-08T14:35:22;8.20;;;3.90;;
14778;SDS011;7481;53.750;10.570;2023-03-08T14:38:13;5.53;;;3.50;;
14778;SDS011;7481;53.750;10.570;2023-03-08T14:41:02;6.37;;;3.90;;
14778;SDS011;7481;53.750;10.570;2023-03-08T14:43:51;6.47;;;4.30;;
14778;SDS011;7481;53.750;10.570;2023-03-08T14:46:38;8.37;;;4.50;;
14778;SDS011;7481;53.750;10.570;2023-03-08T14:49:27;8.17;;;4.57;;
14778;SDS011;7481;53.750;10.570;2023-03-08T14:52:18;5.17;;;3.43;;
14778;SDS011;7481;53.750;10.570;2023-03-08T14:58:12;4.10;;;3.27;;
14778;SDS011;7481;53.750;10.570;2023-03-08T15:01:00;8.00;;;3.60;;
14778;SDS011;7481;53.750;10.570;2023-03-08T15:03:48;3.70;;;3.00;;
14778;SDS011;7481;53.750;10.570;2023-03-08T15:06:35;4.57;;;3.03;;
14778;SDS011;7481;53.750;10.570;2023-03-08T15:09:25;3.90;;;3.00;;
14778;SDS011;7481;53.750;10.570;2023-03-08T15:12:15;5.47;;;3.30;;
14778;SDS011;7481;53.750;10.570;2023-03-08T15:15:07;5.97;;;3.13;;
14778;SDS011;7481;53.750;10.570;2023-03-08T15:17:55;6.57;;;3.20;;
14778;SDS011;7481;53.750;10.570;2023-03-08T15:20:43;5.03;;;3.03;;
14778;SDS011;7481;53.750;10.570;2023-03-08T15:23:34;3.87;;;2.83;;
14778;SDS011;7481;53.750;10.570;2023-03-08T15:26:24;5.77;;;3.83;;
14778;SDS011;7481;53.750;10.570;2023-03-08T15:29:28;7.27;;;4.07;;
14778;SDS011;7481;53.750;10.570;2023-03-08T15:32:16;7.40;;;4.40;;
14778;SDS011;7481;53.750;10.570;2023-03-08T15:35:03;5.83;;;3.37;;
14778;SDS011;7481;53.750;10.570;2023-03-08T15:37:51;5.70;;;3.30;;
14778;SDS011;7481;53.750;10.570;2023-03-08T15:40:39;3.93;;;3.20;;
14778;SDS011;7481;53.750;10.570;2023-03-08T15:43:26;7.03;;;3.30;;
14778;SDS011;7481;53.750;10.570;2023-03-08T15:46:14;5.53;;;4.10;;
14778;SDS011;7481;53.750;10.570;2023-03-08T15:49:02;4.83;;;3.80;;
14778;SDS011;7481;53.750;10.570;2023-03-08T15:51:49;5.17;;;3.70;;
14778;SDS011;7481;53.750;10.570;2023-03-08T15:54:36;5.07;;;3.77;;
14778;SDS011;7481;53.750;10.570;2023-03-08T15:57:25;6.40;;;3.93;;
14778;SDS011;7481;53.750;10.570;2023-03-08T16:00:13;10.15;;;6.20;;
14778;SDS011;7481;53.750;10.570;2023-03-08T16:03:01;6.23;;;4.10;;
14778;SDS011;7481;53.750;10.570;2023-03-08T16:05:48;6.50;;;4.10;;
14778;SDS011;7481;53.750;10.570;2023-03-08T16:08:35;5.80;;;4.37;;
14778;SDS011;7481;53.750;10.570;2023-03-08T16:11:23;13.30;;;4.40;;
14778;SDS011;7481;53.750;10.570;2023-03-08T16:14:10;7.27;;;4.20;;
14778;SDS011;7481;53.750;10.570;2023-03-08T16:17:03;9.10;;;4.10;;
14778;SDS011;7481;53.750;10.570;2023-03-08T16:19:51;8.87;;;4.43;;
14778;SDS011;7481;53.750;10.570;2023-03-08T16:22:38;7.47;;;4.40;;
14778;SDS011;7481;53.750;10.570;2023-03-08T16:25:26;5.27;;;3.50;;
14778;SDS011;7481;53.750;10.570;2023-03-08T16:28:13;6.10;;;3.40;;
14778;SDS011;7481;53.750;10.570;2023-03-08T16:31:01;5.50;;;3.92;;
14778;SDS011;7481;53.750;10.570;2023-03-08T16:33:48;5.67;;;4.17;;
14778;SDS011;7481;53.750;10.570;2023-03-08T16:36:35;7.93;;;4.00;;
14778;SDS011;7481;53.750;10.570;2023-03-08T16:39:23;5.67;;;4.03;;
14778;SDS011;7481;53.750;10.570;2023-03-08T16:42:12;7.83;;;4.77;;
14778;SDS011;7481;53.750;10.570;2023-03-08T16:44:59;7.07;;;4.23;;
14778;SDS011;7481;53.750;10.570;2023-03-08T16:47:47;8.83;;;4.37;;
14778;SDS011;7481;53.750;10.570;2023-03-08T16:50:34;4.70;;;3.57;;
14778;SDS011;7481;53.750;10.570;2023-03-08T16:53:22;5.60;;;3.70;;
14778;SDS011;7481;53.750;10.570;2023-03-08T16:56:17;5.07;;;3.93;;
14778;SDS011;7481;53.750;10.570;2023-03-08T16:59:05;8.50;;;4.50;;
14778;SDS011;7481;53.750;10.570;2023-03-08T17:01:52;7.27;;;4.00;;
14778;SDS011;7481;53.750;10.570;2023-03-08T17:04:40;10.80;;;5.63;;
14778;SDS011;7481;53.750;10.570;2023-03-08T17:07:27;11.90;;;5.00;;
14778;SDS011;7481;53.750;10.570;2023-03-08T17:10:14;8.00;;;4.80;;
14778;SDS011;7481;53.750;10.570;2023-03-08T17:13:02;10.23;;;6.27;;
14778;SDS011;7481;53.750;10.570;2023-03-08T17:15:50;9.57;;;4.87;;
14778;SDS011;7481;53.750;10.570;2023-03-08T17:18:38;9.23;;;5.17;;
14778;SDS011;7481;53.750;10.570;2023-03-08T17:21:25;7.87;;;4.77;;
14778;SDS011;7481;53.750;10.570;2023-03-08T17:24:13;7.17;;;4.73;;
14778;SDS011;7481;53.750;10.570;2023-03-08T17:27:01;9.20;;;4.60;;
14778;SDS011;7481;53.750;10.570;2023-03-08T17:29:48;8.63;;;5.80;;
14778;SDS011;7481;53.750;10.570;2023-03-08T17:32:35;9.40;;;4.80;;
14778;SDS011;7481;53.750;10.570;2023-03-08T17:35:23;9.83;;;5.60;;
14778;SDS011;7481;53.750;10.570;2023-03-08T17:38:11;6.97;;;4.93;;
14778;SDS011;7481;53.750;10.570;2023-03-08T17:40:58;8.10;;;6.00;;
14778;SDS011;7481;53.750;10.570;2023-03-08T17:43:46;8.27;;;5.20;;
14778;SDS011;7481;53.750;10.570;2023-03-08T17:46:33;10.63;;;5.53;;
14778;SDS011;7481;53.750;10.570;2023-03-08T17:49:21;7.87;;;4.97;;
14778;SDS011;7481;53.750;10.570;2023-03-08T17:52:10;11.87;;;5.57;;
14778;SDS011;7481;53.750;10.570;2023-03-08T17:54:57;9.70;;;5.37;;
14778;SDS011;7481;53.750;10.570;2023-03-08T17:57:45;9.83;;;5.63;;
14778;SDS011;7481;53.750;10.570;2023-03-08T18:00:32;8.17;;;5.57;;
14778;SDS011;7481;53.750;10.570;2023-03-08T18:03:19;11.93;;;6.17;;